Time;durP1;ratioP1;P1;durP2;ratioP2;P2;SDS_P1;SDS_P2;PMS_P1;PMS_P2;Temp;Humidity;BMP_temperature;BMP_pressure;BME280_temperature;BME280_humidity;BME280_pressure;Samples;Min_cycle;Max_cycle;Signal;HPM_P1;HPM_P2
2023/05/01 00:01:07;;;;;;;1.38;1.25;;;;;16.80;101668.00;;;;5051284;28;20772;-76
2023/05/01 00:03:35;;;;;;;2.53;1.33;;;;;16.80;101667.00;;;;5054264;28;20570;-76
2023/05/01 00:06:04;;;;;;;2.35;1.45;;;;;16.80;101668.00;;;;5050498;28;20715;-76
2023/05/01 00:08:31;;;;;;;2.90;1.75;;;;;16.80;101656.00;;;;5057124;28;20234;-75
2023/05/01 00:11:03;;;;;;;2.70;1.45;;;;;16.70;101655.00;;;;5066095;28;20205;-75
2023/05/01 00:13:31;;;;;;;2.53;1.65;;;;;16.70;101660.00;;;;5050012;28;20204;-75
2023/05/01 00:15:58;;;;;;;2.95;1.25;;;;;16.70;101651.00;;;;5049107;28;20192;-76
2023/05/01 00:18:29;;;;;;;2.97;1.90;;;;;16.70;101646.00;;;;5049531;28;20215;-76
2023/05/01 00:20:56;;;;;;;5.53;2.70;;;;;16.70;101644.00;;;;5052603;28;20210;-76
2023/05/01 00:23:23;;;;;;;4.85;2.60;;;;;16.60;101639.00;;;;5062182;28;20195;-76
2023/05/01 00:25:51;;;;;;;6.93;2.53;;;;;16.60;101627.00;;;;5049343;28;20580;-76
2023/05/01 00:28:18;;;;;;;6.00;1.75;;;;;16.60;101627.00;;;;5048819;28;20223;-76
2023/05/01 00:30:46;;;;;;;2.30;1.52;;;;;16.60;101625.00;;;;5057018;28;20207;-76
2023/05/01 00:33:13;;;;;;;2.15;1.60;;;;;16.60;101635.00;;;;5056177;28;20226;-76
2023/05/01 00:35:44;;;;;;;1.90;1.20;;;;;16.50;101628.00;;;;5069659;28;20535;-75
2023/05/01 00:38:11;;;;;;;2.75;1.48;;;;;16.50;101623.00;;;;5053834;28;20231;-76
2023/05/01 00:40:42;;;;;;;2.38;1.40;;;;;16.50;101618.00;;;;5049393;28;20203;-76
2023/05/01 00:43:11;;;;;;;2.45;1.85;;;;;16.50;101608.00;;;;5048316;28;20261;-75
2023/05/01 00:45:39;;;;;;;3.08;1.98;;;;;16.40;101606.00;;;;5048144;28;20192;-76
2023/05/01 00:48:07;;;;;;;2.80;1.50;;;;;16.40;101609.00;;;;5049691;28;20235;-76
2023/05/01 00:50:34;;;;;;;2.30;1.83;;;;;16.40;101604.00;;;;5059919;28;20205;-76
2023/05/01 00:53:03;;;;;;;2.50;1.58;;;;;16.40;101599.00;;;;5060111;28;20576;-76
2023/05/01 00:55:32;;;;;;;2.42;1.85;;;;;16.30;101592.00;;;;5049989;28;20196;-76
2023/05/01 00:58:00;;;;;;;3.35;1.75;;;;;16.30;101595.00;;;;5059675;28;20203;-76
2023/05/01 01:00:28;;;;;;;4.00;1.75;;;;;16.30;101591.00;;;;5056392;28;20195;-75
2023/05/01 01:02:55;;;;;;;2.13;1.88;;;;;16.30;101590.00;;;;5065457;28;20209;-76
2023/05/01 01:05:27;;;;;;;3.65;1.55;;;;;16.30;101587.00;;;;5057462;28;20222;-76
2023/05/01 01:08:19;;;;;;;2.40;1.85;;;;;16.20;101578.00;;;;5050408;28;20192;-76
2023/05/01 01:10:53;;;;;;;2.05;1.33;;;;;16.20;101571.00;;;;5056754;28;20195;-76
2023/05/01 01:13:27;;;;;;;2.80;1.63;;;;;16.20;101571.00;;;;5049665;28;20294;-75
2023/05/01 01:15:59;;;;;;;3.42;2.10;;;;;16.20;101567.00;;;;5049080;28;20225;-75
2023/05/01 01:18:33;;;;;;;3.17;2.00;;;;;16.20;101559.00;;;;5049865;28;20204;-75
2023/05/01 01:21:07;;;;;;;2.78;1.90;;;;;16.20;101560.00;;;;5055413;28;20199;-76
2023/05/01 01:24:01;;;;;;;3.22;1.83;;;;;16.10;101552.00;;;;5067917;28;20207;-76
2023/05/01 01:26:40;;;;;;;2.28;1.60;;;;;16.20;101550.00;;;;5049263;28;20203;-75
2023/05/01 01:29:40;;;;;;;3.28;1.85;;;;;16.10;101547.00;;;;5066130;28;20707;-76
2023/05/01 01:32:22;;;;;;;4.55;1.90;;;;;16.20;101544.00;;;;5047703;28;20235;-76
2023/05/01 01:34:54;;;;;;;3.67;1.70;;;;;16.20;101539.00;;;;5068787;28;20203;-76
2023/05/01 01:37:24;;;;;;;4.22;1.85;;;;;16.20;101538.00;;;;5050263;28;20658;-76
2023/05/01 01:39:56;;;;;;;3.13;2.00;;;;;16.20;101530.00;;;;5063269;28;20210;-76
2023/05/01 01:42:29;;;;;;;3.53;1.75;;;;;16.30;101524.00;;;;5061413;28;20210;-77
2023/05/01 01:45:00;;;;;;;3.30;1.67;;;;;16.30;101522.00;;;;5067096;28;20206;-76
2023/05/01 01:47:31;;;;;;;4.55;1.95;;;;;16.30;101515.00;;;;5049681;28;20199;-76
2023/05/01 01:50:04;;;;;;;3.33;2.08;;;;;16.30;101514.00;;;;5048940;28;20654;-77
2023/05/01 01:52:35;;;;;;;3.05;2.08;;;;;16.30;101506.00;;;;5048404;28;20191;-76
2023/05/01 01:55:08;;;;;;;2.97;1.95;;;;;16.30;101505.00;;;;5049143;28;20199;-76
2023/05/01 01:57:38;;;;;;;2.25;1.77;;;;;16.30;101506.00;;;;5046786;28;20977;-76
2023/05/01 02:00:07;;;;;;;2.92;2.10;;;;;16.40;101498.00;;;;5053184;28;20195;-76
2023/05/01 02:02:37;;;;;;;2.85;2.10;;;;;16.40;101495.00;;;;5055946;28;20195;-75
2023/05/01 02:05:08;;;;;;;3.13;1.55;;;;;16.40;101496.00;;;;5066625;28;20202;-75
2023/05/01 02:07:39;;;;;;;2.65;2.03;;;;;16.40;101488.00;;;;5052795;28;20194;-76
2023/05/01 02:10:08;;;;;;;4.82;2.03;;;;;16.40;101487.00;;;;5055421;28;20230;-76
2023/05/01 02:12:37;;;;;;;4.90;1.92;;;;;16.50;101484.00;;;;5055780;28;20203;-75
2023/05/01 02:15:08;;;;;;;2.55;1.52;;;;;16.40;101482.00;;;;5060363;28;20204;-75
2023/05/01 02:17:37;;;;;;;3.58;1.95;;;;;16.50;101475.00;;;;5064129;28;20264;-77
2023/05/01 02:20:11;;;;;;;4.25;1.73;;;;;16.50;101471.00;;;;5063023;28;20241;-75
2023/05/01 02:22:39;;;;;;;4.25;1.98;;;;;16.50;101475.00;;;;5048679;28;20203;-76
2023/05/01 02:25:10;;;;;;;2.95;1.63;;;;;16.50;101473.00;;;;5063246;28;20762;-76
2023/05/01 02:27:40;;;;;;;2.72;1.52;;;;;16.50;101474.00;;;;5048128;28;20219;-76
2023/05/01 02:30:09;;;;;;;2.13;1.50;;;;;16.50;101468.00;;;;5050125;28;20230;-76
2023/05/01 02:32:36;;;;;;;4.22;1.73;;;;;16.60;101469.00;;;;5054222;28;20280;-75
2023/05/01 02:35:04;;;;;;;2.10;1.50;;;;;16.60;101467.00;;;;5048107;28;20235;-76
2023/05/01 02:37:32;;;;;;;2.67;1.67;;;;;16.60;101462.00;;;;5055608;28;20199;-76
2023/05/01 02:40:00;;;;;;;2.45;2.00;;;;;16.60;101456.00;;;;5067170;28;20199;-76
2023/05/01 02:42:28;;;;;;;3.92;1.60;;;;;16.60;101455.00;;;;5061253;28;20623;-76
2023/05/01 02:44:58;;;;;;;2.72;1.63;;;;;16.60;101454.00;;;;5057274;28;20206;-76
2023/05/01 02:47:27;;;;;;;2.47;1.88;;;;;16.60;101450.00;;;;5057987;28;20207;-76
2023/05/01 02:49:55;;;;;;;4.05;2.15;;;;;16.70;101450.00;;;;5048661;28;20231;-76
2023/05/01 02:52:23;;;;;;;6.72;1.90;;;;;16.70;101444.00;;;;5065788;28;20211;-76
2023/05/01 02:54:52;;;;;;;7.70;1.83;;;;;16.70;101450.00;;;;5046770;28;20209;-76
2023/05/01 02:57:19;;;;;;;5.38;1.98;;;;;16.70;101444.00;;;;5047704;28;20203;-76
2023/05/01 02:59:47;;;;;;;1.60;1.45;;;;;16.70;101432.00;;;;5047601;28;20204;-76
2023/05/01 03:02:15;;;;;;;1.88;1.60;;;;;16.80;101439.00;;;;5056964;28;20202;-76
2023/05/01 03:04:42;;;;;;;3.95;1.73;;;;;16.80;101436.00;;;;5066600;28;20195;-76
2023/05/01 03:07:10;;;;;;;1.80;1.50;;;;;16.80;101427.00;;;;5063256;28;20203;-76
2023/05/01 03:09:37;;;;;;;1.95;1.58;;;;;16.80;101430.00;;;;5060776;28;20696;-76
2023/05/01 03:12:06;;;;;;;1.83;1.50;;;;;16.80;101430.00;;;;5047484;28;20569;-76
2023/05/01 03:14:33;;;;;;;3.22;1.95;;;;;16.90;101420.00;;;;5047774;28;20204;-76
2023/05/01 03:17:01;;;;;;;2.50;1.60;;;;;16.90;101425.00;;;;5051713;28;20284;-76
2023/05/01 03:19:28;;;;;;;3.40;2.13;;;;;16.90;101429.00;;;;5065659;28;20256;-76
2023/05/01 03:21:55;;;;;;;3.03;1.80;;;;;16.90;101412.00;;;;5064718;28;20210;-76
2023/05/01 03:24:23;;;;;;;3.20;1.70;;;;;16.90;101419.00;;;;5054463;28;20207;-76
2023/05/01 03:26:51;;;;;;;2.78;1.63;;;;;17.00;101415.00;;;;5056777;28;20196;-76
2023/05/01 03:29:19;;;;;;;3.10;1.63;;;;;16.90;101410.00;;;;5050429;28;20231;-75
2023/05/01 03:31:46;;;;;;;11.82;2.67;;;;;17.00;101404.00;;;;5056184;28;20203;-76
2023/05/01 03:34:14;;;;;;;2.50;1.77;;;;;17.00;101418.00;;;;5057278;28;20224;-76
2023/05/01 03:36:41;;;;;;;2.55;1.55;;;;;17.00;101408.00;;;;5055188;28;20199;-76
2023/05/01 03:39:08;;;;;;;2.10;1.35;;;;;17.00;101406.00;;;;5052419;28;20206;-76
2023/05/01 03:41:35;;;;;;;4.55;2.22;;;;;17.00;101397.00;;;;5065200;28;20198;-76
2023/05/01 03:44:03;;;;;;;2.63;1.77;;;;;17.00;101392.00;;;;5070463;28;20202;-76
2023/05/01 03:46:31;;;;;;;2.65;2.05;;;;;17.00;101386.00;;;;5059946;28;20697;-76
2023/05/01 03:48:59;;;;;;;3.10;2.15;;;;;17.00;101388.00;;;;5061994;28;20215;-76
2023/05/01 03:51:26;;;;;;;5.90;2.72;;;;;17.00;101394.00;;;;5049978;28;20196;-76
2023/05/01 03:53:55;;;;;;;2.92;1.55;;;;;17.00;101387.00;;;;5050766;28;20699;-76
2023/05/01 03:56:24;;;;;;;2.50;1.80;;;;;17.00;101384.00;;;;5051915;28;20214;-76
2023/05/01 03:58:51;;;;;;;2.65;1.70;;;;;17.00;101385.00;;;;5050005;28;20188;-76
2023/05/01 04:01:19;;;;;;;4.13;1.90;;;;;17.00;101390.00;;;;5050042;28;20568;-76
2023/05/01 04:03:48;;;;;;;3.85;1.75;;;;;17.00;101384.00;;;;5066504;28;20210;-76
2023/05/01 04:06:16;;;;;;;2.00;1.65;;;;;17.10;101379.00;;;;5058895;28;20269;-76
2023/05/01 04:08:43;;;;;;;3.95;1.88;;;;;17.00;101380.00;;;;5066610;28;20202;-76
2023/05/01 04:11:10;;;;;;;2.13;1.60;;;;;17.10;101375.00;;;;5049655;28;20204;-76
2023/05/01 04:13:38;;;;;;;5.63;1.70;;;;;17.10;101382.00;;;;5054105;28;20301;-76
2023/05/01 04:16:06;;;;;;;5.07;2.08;;;;;17.10;101374.00;;;;5062959;28;20191;-76
2023/05/01 04:18:33;;;;;;;3.92;1.80;;;;;17.10;101380.00;;;;5053027;28;20199;-76
2023/05/01 04:21:02;;;;;;;3.22;1.83;;;;;17.00;101374.00;;;;5051774;28;20215;-76
2023/05/01 04:23:29;;;;;;;1.80;1.45;;;;;17.10;101377.00;;;;5049310;28;20641;-76
2023/05/01 04:25:57;;;;;;;4.07;1.60;;;;;17.10;101373.00;;;;5050860;28;20196;-76
2023/05/01 04:28:24;;;;;;;2.25;1.77;;;;;17.10;101372.00;;;;5053231;28;20693;-76
2023/05/01 04:30:51;;;;;;;4.13;1.77;;;;;17.10;101368.00;;;;5053286;28;20716;-76
2023/05/01 04:33:18;;;;;;;3.38;1.58;;;;;17.10;101370.00;;;;5054336;28;20230;-77
2023/05/01 04:35:46;;;;;;;3.75;1.80;;;;;17.10;101371.00;;;;5066023;28;20206;-77
2023/05/01 04:38:14;;;;;;;2.85;1.67;;;;;17.10;101365.00;;;;5048546;28;20212;-77
2023/05/01 04:40:42;;;;;;;2.28;1.77;;;;;17.10;101370.00;;;;5054432;28;20207;-77
2023/05/01 04:43:09;;;;;;;3.50;1.70;;;;;17.10;101370.00;;;;5054979;28;20205;-78
2023/05/01 04:45:37;;;;;;;2.45;1.90;;;;;17.10;101369.00;;;;5050918;28;20200;-75
2023/05/01 04:48:05;;;;;;;3.00;1.80;;;;;17.10;101357.00;;;;5051306;28;20215;-75
2023/05/01 04:50:32;;;;;;;4.28;2.28;;;;;17.10;101362.00;;;;5053372;28;20223;-76
2023/05/01 04:52:59;;;;;;;3.55;1.85;;;;;17.10;101365.00;;;;5049390;28;20200;-76
2023/05/01 04:55:28;;;;;;;3.05;1.73;;;;;17.10;101364.00;;;;5049383;28;20200;-76
2023/05/01 04:57:56;;;;;;;3.42;1.85;;;;;17.10;101368.00;;;;5049117;28;20214;-77
2023/05/01 05:00:24;;;;;;;2.25;1.60;;;;;17.10;101366.00;;;;5056322;28;20592;-77
2023/05/01 05:02:51;;;;;;;5.80;2.17;;;;;17.10;101365.00;;;;5057997;28;20199;-77
2023/05/01 05:05:19;;;;;;;3.75;2.28;;;;;17.10;101370.00;;;;5065035;28;20208;-77
2023/05/01 05:07:46;;;;;;;5.70;2.15;;;;;17.10;101359.00;;;;5049549;28;20206;-77
2023/05/01 05:10:14;;;;;;;2.50;1.85;;;;;17.10;101360.00;;;;5050244;28;20596;-77
2023/05/01 05:12:42;;;;;;;3.10;1.73;;;;;17.10;101360.00;;;;5055262;28;20188;-76
2023/05/01 05:15:10;;;;;;;3.20;2.17;;;;;17.20;101369.00;;;;5048296;28;20206;-77
2023/05/01 05:17:38;;;;;;;2.10;1.73;;;;;17.20;101364.00;;;;5068026;28;20705;-77
2023/05/01 05:20:06;;;;;;;3.40;2.22;;;;;17.20;101369.00;;;;5055851;28;20204;-77
2023/05/01 05:22:37;;;;;;;3.60;2.65;;;;;17.20;101365.00;;;;5049597;28;20689;-77
2023/05/01 05:25:05;;;;;;;3.55;1.95;;;;;17.20;101370.00;;;;5048277;28;20192;-77
2023/05/01 05:27:36;;;;;;;3.70;2.20;;;;;17.20;101371.00;;;;5048655;28;20219;-77
2023/05/01 05:30:07;;;;;;;5.07;2.50;;;;;17.10;101362.00;;;;5059490;28;20222;-78
2023/05/01 05:32:34;;;;;;;3.25;1.80;;;;;17.20;101371.00;;;;5053368;28;20223;-77
2023/05/01 05:35:01;;;;;;;6.10;2.00;;;;;17.20;101371.00;;;;5048713;28;20205;-77
2023/05/01 05:37:29;;;;;;;3.20;2.42;;;;;17.20;101372.00;;;;5061161;28;20619;-77
2023/05/01 05:39:56;;;;;;;3.65;2.05;;;;;17.20;101377.00;;;;5060983;28;20601;-77
2023/05/01 05:42:23;;;;;;;7.07;2.22;;;;;17.20;101369.00;;;;5051218;28;20249;-78
2023/05/01 05:44:51;;;;;;;2.47;1.70;;;;;17.20;101372.00;;;;5056872;28;20225;-79
2023/05/01 05:47:20;;;;;;;3.20;1.63;;;;;17.20;101370.00;;;;5051506;28;20229;-78
2023/05/01 05:49:48;;;;;;;2.85;1.95;;;;;17.20;101365.00;;;;5050231;28;20215;-79
2023/05/01 05:52:15;;;;;;;3.40;2.03;;;;;17.30;101358.00;;;;5050073;28;20199;-79
2023/05/01 05:54:43;;;;;;;6.28;2.75;;;;;17.30;101355.00;;;;5059947;28;20188;-77
2023/05/01 05:57:10;;;;;;;4.45;2.70;;;;;17.30;101357.00;;;;5048855;28;20192;-78
2023/05/01 05:59:38;;;;;;;4.07;2.60;;;;;17.30;101360.00;;;;5062263;28;20286;-77
2023/05/01 06:02:05;;;;;;;4.03;2.35;;;;;17.30;101357.00;;;;5056836;28;20206;-77
2023/05/01 06:04:34;;;;;;;2.80;2.10;;;;;17.40;101357.00;;;;5055144;28;20695;-77
2023/05/01 06:07:01;;;;;;;3.88;2.13;;;;;17.40;101351.00;;;;5047786;28;20245;-78
2023/05/01 06:09:29;;;;;;;3.38;2.85;;;;;17.50;101357.00;;;;5051913;28;20196;-78
2023/05/01 06:11:57;;;;;;;3.63;2.40;;;;;17.50;101352.00;;;;5061946;28;20226;-77
2023/05/01 06:14:24;;;;;;;6.18;2.10;;;;;17.60;101344.00;;;;5063142;28;20207;-77
2023/05/01 06:16:52;;;;;;;6.45;2.55;;;;;17.70;101345.00;;;;5067117;28;20198;-76
2023/05/01 06:19:19;;;;;;;4.32;2.40;;;;;17.70;101343.00;;;;5065473;28;20195;-78
2023/05/01 06:21:48;;;;;;;3.10;2.03;;;;;17.80;101355.00;;;;5050109;28;20206;-77
2023/05/01 06:24:15;;;;;;;5.45;2.45;;;;;17.80;101351.00;;;;5056970;28;20658;-77
2023/05/01 06:26:43;;;;;;;3.97;2.78;;;;;17.90;101344.00;;;;5055279;28;20200;-78
2023/05/01 06:29:10;;;;;;;3.08;2.70;;;;;18.00;101346.00;;;;5064749;28;20246;-78
2023/05/01 06:31:37;;;;;;;3.88;2.35;;;;;18.00;101342.00;;;;5053027;28;20266;-78
2023/05/01 06:34:05;;;;;;;3.97;2.35;;;;;18.10;101341.00;;;;5064036;28;20226;-77
2023/05/01 06:36:32;;;;;;;4.72;2.47;;;;;18.10;101343.00;;;;5059658;28;20192;-77
2023/05/01 06:39:01;;;;;;;3.58;2.58;;;;;18.10;101343.00;;;;5061733;28;20567;-76
2023/05/01 06:41:28;;;;;;;2.95;2.35;;;;;18.20;101343.00;;;;5067101;28;20565;-78
2023/05/01 06:43:55;;;;;;;4.97;2.70;;;;;18.20;101343.00;;;;5063706;28;20695;-79
2023/05/01 06:46:22;;;;;;;2.97;2.58;;;;;18.30;101341.00;;;;5068229;28;20649;-77
2023/05/01 06:48:50;;;;;;;3.58;2.20;;;;;18.30;101342.00;;;;5066255;28;20199;-75
2023/05/01 06:51:17;;;;;;;5.10;2.38;;;;;18.40;101339.00;;;;5049492;28;20226;-75
2023/05/01 06:53:44;;;;;;;4.07;2.58;;;;;18.40;101338.00;;;;5060449;28;20202;-75
2023/05/01 06:56:13;;;;;;;4.32;2.72;;;;;18.50;101338.00;;;;5071222;28;20195;-75
2023/05/01 06:58:40;;;;;;;10.05;2.55;;;;;18.50;101333.00;;;;5071926;28;20199;-75
2023/05/01 07:01:08;;;;;;;3.10;2.40;;;;;18.60;101338.00;;;;5060826;28;20199;-75
2023/05/01 07:03:35;;;;;;;3.70;2.30;;;;;18.60;101339.00;;;;5071907;28;20206;-76
2023/05/01 07:06:02;;;;;;;2.70;2.13;;;;;18.70;101343.00;;;;5058944;28;20212;-75
2023/05/01 07:08:30;;;;;;;3.85;2.50;;;;;18.70;101346.00;;;;5051709;28;20589;-76
2023/05/01 07:10:57;;;;;;;3.40;2.55;;;;;18.80;101345.00;;;;5050946;28;20227;-75
2023/05/01 07:13:27;;;;;;;5.60;2.38;;;;;18.80;101344.00;;;;5052424;28;20207;-75
2023/05/01 07:15:54;;;;;;;3.95;2.78;;;;;18.90;101342.00;;;;5052618;28;20200;-76
2023/05/01 07:18:21;;;;;;;4.97;2.83;;;;;18.90;101341.00;;;;5059914;28;20207;-76
2023/05/01 07:20:49;;;;;;;3.03;2.10;;;;;19.00;101343.00;;;;5066067;28;20260;-75
2023/05/01 07:23:16;;;;;;;5.63;2.42;;;;;19.00;101339.00;;;;5060033;28;20760;-77
2023/05/01 07:25:44;;;;;;;3.03;2.72;;;;;19.00;101339.00;;;;5063133;28;20202;-76
2023/05/01 07:28:12;;;;;;;4.57;2.95;;;;;19.10;101349.00;;;;5051538;28;20227;-75
2023/05/01 07:30:40;;;;;;;6.13;2.97;;;;;19.10;101339.00;;;;5071187;28;20227;-78
2023/05/01 07:33:08;;;;;;;3.92;2.35;;;;;19.10;101344.00;;;;5070377;28;20237;-78
2023/05/01 07:35:35;;;;;;;6.00;2.25;;;;;19.20;101345.00;;;;5069828;28;20205;-78
2023/05/01 07:38:02;;;;;;;4.95;2.67;;;;;19.20;101340.00;;;;5071694;28;20195;-77
2023/05/01 07:40:29;;;;;;;4.50;2.53;;;;;19.20;101346.00;;;;5056329;28;20219;-78
2023/05/01 07:42:57;;;;;;;4.90;2.50;;;;;19.30;101347.00;;;;5071477;28;20199;-78
2023/05/01 07:45:24;;;;;;;3.42;2.67;;;;;19.30;101348.00;;;;5071075;28;20195;-78
2023/05/01 07:47:53;;;;;;;5.70;2.28;;;;;19.30;101338.00;;;;5071487;28;20202;-78
2023/05/01 07:50:21;;;;;;;3.03;2.60;;;;;19.40;101342.00;;;;5071496;28;20223;-78
2023/05/01 07:52:48;;;;;;;3.85;2.63;;;;;19.40;101342.00;;;;5070290;28;20202;-78
2023/05/01 07:55:18;;;;;;;3.92;2.97;;;;;19.40;101349.00;;;;5070279;28;20195;-78
2023/05/01 07:57:45;;;;;;;4.43;2.75;;;;;19.40;101348.00;;;;5066694;28;20207;-77
2023/05/01 08:00:13;;;;;;;3.28;2.97;;;;;19.40;101345.00;;;;5070236;28;20218;-77
2023/05/01 08:02:41;;;;;;;3.25;2.33;;;;;19.50;101346.00;;;;5070678;28;20567;-77
2023/05/01 08:05:10;;;;;;;6.50;3.00;;;;;19.50;101349.00;;;;5070055;28;20202;-78
2023/05/01 08:07:37;;;;;;;5.57;2.80;;;;;19.50;101345.00;;;;5070200;28;20199;-77
2023/05/01 08:10:05;;;;;;;5.15;3.30;;;;;19.60;101343.00;;;;5068982;28;20202;-78
2023/05/01 08:12:38;;;;;;;4.90;2.83;;;;;19.60;101350.00;;;;5062182;28;20214;-79
2023/05/01 08:15:07;;;;;;;4.05;2.58;;;;;19.60;101350.00;;;;5061915;28;20245;-79
2023/05/01 08:17:35;;;;;;;6.63;3.00;;;;;19.60;101356.00;;;;5050192;28;20199;-78
2023/05/01 08:20:03;;;;;;;5.40;3.00;;;;;19.60;101359.00;;;;5057342;28;20245;-80
2023/05/01 08:22:32;;;;;;;4.80;2.55;;;;;19.60;101344.00;;;;5067257;28;20198;-79
2023/05/01 08:24:59;;;;;;;5.85;2.47;;;;;19.70;101349.00;;;;5060380;28;20876;-77
2023/05/01 08:27:26;;;;;;;4.07;2.78;;;;;19.70;101344.00;;;;5066180;28;20238;-78
2023/05/01 08:29:54;;;;;;;4.28;2.53;;;;;19.70;101345.00;;;;5058497;28;20216;-79
2023/05/01 08:32:21;;;;;;;3.90;2.47;;;;;19.70;101340.00;;;;5059951;28;20242;-79
2023/05/01 08:34:48;;;;;;;3.85;3.00;;;;;19.80;101341.00;;;;5059501;28;20206;-78
2023/05/01 08:37:17;;;;;;;2.95;2.65;;;;;19.80;101347.00;;;;5051299;28;20199;-78
2023/05/01 08:39:46;;;;;;;6.70;2.95;;;;;19.80;101347.00;;;;5058843;28;20198;-80
2023/05/01 08:42:15;;;;;;;3.90;2.65;;;;;19.80;101352.00;;;;5064261;28;20208;-81
2023/05/01 08:44:43;;;;;;;3.58;2.83;;;;;19.90;101350.00;;;;5054433;28;20203;-78
2023/05/01 08:47:15;;;;;;;4.47;3.15;;;;;19.90;101356.00;;;;5057991;28;20553;-79
2023/05/01 08:49:43;;;;;;;3.42;2.45;;;;;19.90;101356.00;;;;5063883;28;20206;-79
2023/05/01 08:52:12;;;;;;;4.47;2.78;;;;;20.00;101360.00;;;;5067832;28;20227;-78
2023/05/01 08:54:42;;;;;;;3.58;2.33;;;;;20.00;101358.00;;;;5049503;28;20200;-80
2023/05/01 08:57:12;;;;;;;3.90;2.47;;;;;20.00;101360.00;;;;5049421;28;20199;-77
2023/05/01 08:59:40;;;;;;;4.72;2.53;;;;;20.10;101359.00;;;;5049856;28;20269;-78
2023/05/01 09:02:09;;;;;;;3.65;2.47;;;;;20.10;101346.00;;;;5048240;28;20207;-78
2023/05/01 09:04:39;;;;;;;4.63;2.40;;;;;20.20;101344.00;;;;5054505;28;20219;-77
2023/05/01 09:07:07;;;;;;;6.35;2.78;;;;;20.20;101346.00;;;;5048308;28;20227;-77
2023/05/01 09:09:35;;;;;;;2.92;2.60;;;;;20.30;101350.00;;;;5048887;28;20195;-77
2023/05/01 09:12:18;;;;;;;2.97;2.65;;;;;20.30;101350.00;;;;5047957;28;20768;-77
2023/05/01 09:14:45;;;;;;;4.20;2.80;;;;;20.40;101358.00;;;;5049032;28;20192;-78
2023/05/01 09:17:13;;;;;;;2.90;2.55;;;;;20.50;101364.00;;;;5048478;28;20269;-77
2023/05/01 09:19:40;;;;;;;2.88;2.55;;;;;20.60;101360.00;;;;5047985;28;20558;-77
2023/05/01 09:22:09;;;;;;;4.13;3.03;;;;;20.70;101365.00;;;;5060881;28;20221;-78
2023/05/01 09:24:36;;;;;;;6.07;2.67;;;;;20.80;101370.00;;;;5053305;28;20815;-78
2023/05/01 09:27:04;;;;;;;4.85;2.88;;;;;20.90;101370.00;;;;5058180;28;20238;-77
2023/05/01 09:29:50;;;;;;;3.80;2.45;;;;;20.90;101369.00;;;;5048075;28;20216;-77
2023/05/01 09:32:19;;;;;;;3.53;2.67;;;;;21.10;101369.00;;;;5052069;28;20230;-77
2023/05/01 09:34:48;;;;;;;3.65;2.53;;;;;21.20;101375.00;;;;5066023;28;20202;-77
2023/05/01 09:37:27;;;;;;;4.45;2.85;;;;;21.20;101370.00;;;;5063142;28;20207;-77
2023/05/01 09:40:05;;;;;;;3.80;2.38;;;;;21.40;101374.00;;;;5049221;28;20290;-78
2023/05/01 09:42:33;;;;;;;3.38;2.45;;;;;21.60;101372.00;;;;5047577;28;20192;-77
2023/05/01 09:45:03;;;;;;;4.07;2.92;;;;;21.70;101364.00;;;;5048107;28;20207;-77
2023/05/01 09:47:32;;;;;;;3.03;2.20;;;;;21.80;101368.00;;;;5055749;28;20210;-77
2023/05/01 09:50:00;;;;;;;6.35;2.25;;;;;22.00;101372.00;;;;5052180;28;20563;-77
2023/05/01 09:52:28;;;;;;;3.47;2.28;;;;;22.10;101370.00;;;;5056412;28;20229;-77
2023/05/01 09:55:13;;;;;;;5.05;2.10;;;;;22.10;101363.00;;;;5059437;28;20219;-77
2023/05/01 09:57:42;;;;;;;2.72;1.77;;;;;22.30;101366.00;;;;5047326;28;20661;-77
2023/05/01 10:00:12;;;;;;;3.00;1.77;;;;;22.40;101365.00;;;;5047909;28;20612;-77
2023/05/01 10:02:41;;;;;;;4.90;1.80;;;;;22.50;101364.00;;;;5068206;28;20213;-77
2023/05/01 10:05:10;;;;;;;3.90;2.10;;;;;22.60;101362.00;;;;5067638;28;20206;-78
2023/05/01 10:07:38;;;;;;;2.33;1.73;;;;;22.70;101365.00;;;;5062635;28;20199;-78
2023/05/01 10:10:18;;;;;;;2.72;2.00;;;;;22.70;101369.00;;;;5051064;28;20199;-77
2023/05/01 10:12:45;;;;;;;7.30;2.15;;;;;22.90;101370.00;;;;5046234;28;20241;-77
2023/05/01 10:15:14;;;;;;;4.18;1.73;;;;;22.90;101367.00;;;;5046186;28;20720;-77
2023/05/01 10:17:43;;;;;;;3.03;1.63;;;;;23.00;101374.00;;;;5060139;28;20202;-77
2023/05/01 10:20:12;;;;;;;2.05;1.50;;;;;23.00;101374.00;;;;5065217;28;20190;-77
2023/05/01 10:22:40;;;;;;;3.10;1.25;;;;;23.00;101378.00;;;;5054923;28;20218;-77
2023/05/01 10:25:11;;;;;;;4.90;1.90;;;;;23.00;101374.00;;;;5046242;28;20195;-77
2023/05/01 10:27:40;;;;;;;2.10;1.10;;;;;23.00;101386.00;;;;5048164;28;20196;-77
2023/05/01 10:30:08;;;;;;;4.60;1.35;;;;;23.10;101383.00;;;;5066314;28;20876;-77
2023/05/01 10:32:40;;;;;;;2.08;1.20;;;;;23.10;101388.00;;;;5061264;28;20234;-78
2023/05/01 10:35:12;;;;;;;2.65;1.27;;;;;23.10;101386.00;;;;5061665;28;20323;-78
2023/05/01 10:37:46;;;;;;;1.70;1.20;;;;;23.10;101387.00;;;;5068547;28;20194;-78
2023/05/01 10:40:45;;;;;;;4.47;1.40;;;;;23.00;101390.00;;;;5055889;28;20205;-77
2023/05/01 10:43:18;;;;;;;1.83;0.98;;;;;23.10;101394.00;;;;5052618;28;20744;-77
2023/05/01 10:45:46;;;;;;;2.53;1.50;;;;;23.10;101388.00;;;;5068010;28;20238;-78
2023/05/01 10:48:54;;;;;;;1.90;1.17;;;;;23.00;101390.00;;;;5072028;28;20591;-77
2023/05/01 10:51:22;;;;;;;2.42;1.80;;;;;23.10;101397.00;;;;5056778;28;20255;-77
2023/05/01 10:54:05;;;;;;;2.83;2.30;;;;;23.10;101399.00;;;;5052129;28;20197;-77
2023/05/01 10:56:43;;;;;;;4.45;2.55;;;;;23.00;101400.00;;;;5053264;28;20188;-77
2023/05/01 10:59:11;;;;;;;2.85;2.40;;;;;23.00;101405.00;;;;5057489;28;20230;-77
2023/05/01 11:01:40;;;;;;;3.92;2.47;;;;;23.00;101399.00;;;;5059933;28;20562;-77
2023/05/01 11:04:49;;;;;;;3.50;2.33;;;;;22.90;101405.00;;;;5060785;28;20210;-77
2023/05/01 11:07:20;;;;;;;5.38;2.20;;;;;23.00;101399.00;;;;5063486;28;20200;-78
2023/05/01 11:09:53;;;;;;;4.18;2.42;;;;;23.10;101396.00;;;;5064895;28;20206;-78
2023/05/01 11:12:49;;;;;;;3.75;2.53;;;;;23.00;101393.00;;;;5066426;28;21005;-78
2023/05/01 11:15:27;;;;;;;4.90;2.10;;;;;23.20;101396.00;;;;5056758;28;20234;-78
2023/05/01 11:17:55;;;;;;;4.32;2.20;;;;;23.40;101392.00;;;;5051640;28;20257;-77
2023/05/01 11:20:50;;;;;;;6.88;2.35;;;;;23.40;101392.00;;;;5064167;28;20578;-77
2023/05/01 11:23:22;;;;;;;6.63;2.50;;;;;23.70;101391.00;;;;5054725;28;20309;-77
2023/05/01 11:25:52;;;;;;;4.15;2.40;;;;;23.80;101397.00;;;;5054240;28;20230;-77
2023/05/01 11:28:23;;;;;;;2.33;1.85;;;;;23.90;101386.00;;;;5050947;28;20224;-77
2023/05/01 11:30:51;;;;;;;4.53;1.80;;;;;24.10;101386.00;;;;5050715;28;20238;-77
2023/05/01 11:33:25;;;;;;;3.08;1.50;;;;;24.20;101392.00;;;;5050615;28;20767;-76
2023/05/01 11:36:01;;;;;;;2.70;1.23;;;;;24.30;101399.00;;;;5050748;28;20282;-76
2023/05/01 11:38:29;;;;;;;3.20;0.80;;;;;24.50;101395.00;;;;5063234;28;20195;-77
2023/05/01 11:40:59;;;;;;;2.88;0.85;;;;;24.60;101381.00;;;;5070557;28;20195;-76
2023/05/01 11:43:27;;;;;;;2.50;0.88;;;;;24.70;101394.00;;;;5069872;28;20203;-77
2023/05/01 11:46:00;;;;;;;1.95;0.98;;;;;24.80;101381.00;;;;5060542;28;20200;-77
2023/05/01 11:48:29;;;;;;;2.05;1.35;;;;;24.90;101388.00;;;;5054982;28;20187;-76
2023/05/01 11:50:58;;;;;;;3.03;2.13;;;;;25.10;101388.00;;;;5069706;28;20215;-77
2023/05/01 11:53:26;;;;;;;3.33;1.85;;;;;25.10;101390.00;;;;5061912;28;20226;-78
2023/05/01 11:55:53;;;;;;;2.65;1.63;;;;;25.20;101390.00;;;;5056567;28;20245;-79
2023/05/01 11:58:36;;;;;;;4.72;1.65;;;;;25.20;101391.00;;;;5064639;28;20199;-78
2023/05/01 12:01:06;;;;;;;2.20;1.95;;;;;25.30;101394.00;;;;5068626;28;20195;-78
2023/05/01 12:03:42;;;;;;;2.65;1.92;;;;;25.20;101391.00;;;;5066044;28;20203;-78
2023/05/01 12:06:11;;;;;;;3.05;1.67;;;;;25.20;101394.00;;;;5062836;28;20203;-78
2023/05/01 12:08:49;;;;;;;4.82;2.50;;;;;25.20;101395.00;;;;5068975;28;20201;-79
2023/05/01 12:11:19;;;;;;;3.22;2.15;;;;;25.20;101398.00;;;;5061485;28;20282;-78
2023/05/01 12:13:49;;;;;;;4.85;2.47;;;;;25.10;101407.00;;;;5060143;28;20241;-78
2023/05/01 12:16:16;;;;;;;4.03;2.83;;;;;25.00;101409.00;;;;5068982;28;20195;-78
2023/05/01 12:18:44;;;;;;;4.15;2.72;;;;;24.90;101405.00;;;;5070705;28;20194;-79
2023/05/01 12:21:17;;;;;;;4.88;3.10;;;;;24.60;101412.00;;;;5070378;28;20393;-77